Time;durP1;ratioP1;P1;durP2;ratioP2;P2;SDS_P1;SDS_P2;PMS_P1;PMS_P2;Temp;Humidity;BMP_temperature;BMP_pressure;BME280_temperature;BME280_humidity;BME280_pressure;Samples;Min_cycle;Max_cycle;Signal;HPM_P1;HPM_P2
2022/09/19 00:00:51;;;;;;;;;;;;;;;27.26;32.16;100611.16;5055948;28;1021;-27
2022/09/19 00:03:16;;;;;;;;;;;;;;;27.29;32.05;100616.22;5056351;28;1219;-30
2022/09/19 00:05:42;;;;;;;;;;;;;;;27.29;31.98;100616.22;5056223;28;1202;-28
2022/09/19 00:08:07;;;;;;;;;;;;;;;27.25;32.52;100617.59;5056000;28;1230;-27
2022/09/19 00:10:36;;;;;;;;;;;;;;;27.29;32.33;100621.63;5056004;28;1136;-28
2022/09/19 00:13:04;;;;;;;;;;;;;;;27.24;32.42;100622.16;5056052;28;899;-29
2022/09/19 00:15:30;;;;;;;;;;;;;;;27.31;32.63;100622.25;5053580;28;1898;-31
2022/09/19 00:17:55;;;;;;;;;;;;;;;27.30;32.45;100630.53;5036147;28;1194;-27
2022/09/19 00:20:20;;;;;;;;;;;;;;;27.25;32.66;100623.84;5035441;28;1133;-28
2022/09/19 00:24:45;;;;;;;;;;;;;;;27.23;32.43;100625.88;5035660;28;1225;-30
2022/09/19 00:25:31;;;;;;;;;;;;;;;27.24;32.22;100630.25;5037883;28;901;-28
2022/09/19 00:27:56;;;;;;;;;;;;;;;27.23;32.60;100636.69;5036534;28;1155;-28
2022/09/19 00:30:21;;;;;;;;;;;;;;;27.29;32.09;100639.66;5039070;28;1092;-27
2022/09/19 00:32:47;;;;;;;;;;;;;;;27.29;32.17;100643.22;5039564;28;1191;-29
2022/09/19 00:35:12;;;;;;;;;;;;;;;27.25;32.44;100650.00;5044677;28;1615;-27
2022/09/19 00:37:37;;;;;;;;;;;;;;;27.26;32.54;100649.81;5056599;28;1906;-28
2022/09/19 00:40:03;;;;;;;;;;;;;;;27.26;32.41;100648.97;5059426;28;1166;-30
2022/09/19 00:42:28;;;;;;;;;;;;;;;27.23;32.54;100643.94;5054734;28;1232;-30
2022/09/19 00:44:54;;;;;;;;;;;;;;;27.30;32.35;100647.59;5059428;28;1135;-29
2022/09/19 00:47:24;;;;;;;;;;;;;;;27.26;32.41;100647.13;5051143;28;1120;-30
2022/09/19 00:49:50;;;;;;;;;;;;;;;27.23;32.54;100644.78;5041418;28;953;-28
2022/09/19 00:52:35;;;;;;;;;;;;;;;27.32;32.14;100644.69;5037819;28;1188;-29
2022/09/19 00:55:00;;;;;;;;;;;;;;;27.23;32.42;100630.44;5039007;28;1481;-28
2022/09/19 00:57:33;;;;;;;;;;;;;;;27.17;32.99;100633.91;5039575;28;1967;-28
2022/09/19 00:59:58;;;;;;;;;;;;;;;27.14;33.04;100633.22;5039435;28;1113;-28
2022/09/19 01:02:28;;;;;;;;;;;;;;;27.13;33.14;100626.16;5037553;28;1163;-28
2022/09/19 01:04:53;;;;;;;;;;;;;;;27.22;33.02;100636.88;5037975;28;1176;-29
2022/09/19 01:07:28;;;;;;;;;;;;;;;27.25;32.62;100628.41;5039099;28;1163;-28
2022/09/19 01:09:55;;;;;;;;;;;;;;;27.22;32.91;100632.31;5039179;28;1163;-29
2022/09/19 01:12:32;;;;;;;;;;;;;;;27.25;32.30;100631.94;5042767;28;1084;-28
2022/09/19 01:15:08;;;;;;;;;;;;;;;27.27;32.05;100623.66;5055348;28;1135;-29
2022/09/19 01:17:52;;;;;;;;;;;;;;;27.26;32.04;100622.81;5059049;28;1914;-27
2022/09/19 01:20:21;;;;;;;;;;;;;;;27.19;32.17;100621.91;5058644;28;1191;-28
2022/09/19 01:23:02;;;;;;;;;;;;;;;27.27;32.24;100618.25;5057019;28;1116;-30
2022/09/19 01:25:33;;;;;;;;;;;;;;;27.27;32.04;100623.66;5058798;28;1166;-29
2022/09/19 01:28:02;;;;;;;;;;;;;;;27.25;32.18;100623.84;5057389;28;1168;-27
2022/09/19 01:30:27;;;;;;;;;;;;;;;27.21;32.08;100621.72;5057569;28;1132;-28
2022/09/19 01:32:55;;;;;;;;;;;;;;;27.18;32.50;100622.91;5057440;28;1148;-27
2022/09/19 01:35:34;;;;;;;;;;;;;;;27.26;32.15;100622.81;5058580;28;1898;-27
2022/09/19 01:38:10;;;;;;;;;;;;;;;27.20;32.39;100630.81;5056739;28;1155;-30
2022/09/19 01:40:35;;;;;;;;;;;;;;;27.19;32.21;100626.44;5056532;28;1144;-30
2022/09/19 01:43:00;;;;;;;;;;;;;;;27.19;32.13;100627.31;5040340;28;1153;-29
2022/09/19 01:45:31;;;;;;;;;;;;;;;27.10;32.77;100618.44;5058185;28;1139;-27
2022/09/19 01:47:56;;;;;;;;;;;;;;;27.17;32.32;100623.09;5045153;28;1463;-29
2022/09/19 01:50:31;;;;;;;;;;;;;;;27.19;32.27;100624.59;5051293;28;1096;-28
2022/09/19 01:53:01;;;;;;;;;;;;;;;27.16;32.63;100627.66;5037739;28;1230;-29
2022/09/19 01:55:32;;;;;;;;;;;;;;;27.14;32.54;100629.72;5038254;28;1965;-27
2022/09/19 01:58:00;;;;;;;;;;;;;;;27.18;32.37;100625.59;5038386;28;1160;-28
2022/09/19 02:00:26;;;;;;;;;;;;;;;27.06;32.39;100627.94;5040018;28;1109;-30
2022/09/19 02:02:54;;;;;;;;;;;;;;;26.89;32.78;100624.56;5046914;28;1101;-29
2022/09/19 02:05:21;;;;;;;;;;;;;;;26.85;32.67;100631.31;5037915;28;1187;-29
2022/09/19 02:08:02;;;;;;;;;;;;;;;26.82;33.58;100640.66;5037671;28;1223;-29
2022/09/19 02:10:32;;;;;;;;;;;;;;;26.84;33.90;100640.47;5038032;28;1163;-28
2022/09/19 02:12:57;;;;;;;;;;;;;;;26.87;33.55;100634.69;5042110;28;1304;-28
2022/09/19 02:15:25;;;;;;;;;;;;;;;26.95;33.72;100637.31;5051575;28;1973;-31
2022/09/19 02:17:56;;;;;;;;;;;;;;;27.04;33.81;100637.25;5037876;28;1219;-27
2022/09/19 02:20:31;;;;;;;;;;;;;;;26.96;33.65;100630.06;5037434;28;1248;-31
2022/09/19 02:23:02;;;;;;;;;;;;;;;26.93;33.44;100638.50;5037624;28;1140;-30
2022/09/19 02:25:30;;;;;;;;;;;;;;;27.00;33.82;100643.00;5046192;28;1167;-27
2022/09/19 02:27:58;;;;;;;;;;;;;;;27.07;33.53;100645.81;5037897;28;1218;-31
2022/09/19 02:30:24;;;;;;;;;;;;;;;27.08;33.23;100649.34;5036522;28;1107;-28
2022/09/19 02:32:50;;;;;;;;;;;;;;;27.08;33.47;100650.19;5037237;28;1155;-30
2022/09/19 02:35:38;;;;;;;;;;;;;;;27.05;33.39;100652.41;5036065;28;1088;-28
2022/09/19 02:38:16;;;;;;;;;;;;;;;27.02;33.19;100656.34;5050248;28;1498;-28
2022/09/19 02:40:44;;;;;;;;;;;;;;;27.00;33.55;100659.19;5056595;28;1136;-31
2022/09/19 02:43:14;;;;;;;;;;;;;;;26.97;33.59;100662.25;5057106;28;1056;-28
2022/09/19 02:45:41;;;;;;;;;;;;;;;26.99;33.70;100664.78;5056079;28;1207;-27
2022/09/19 02:48:12;;;;;;;;;;;;;;;26.91;33.74;100662.97;5042593;28;1080;-27
2022/09/19 02:50:47;;;;;;;;;;;;;;;26.92;33.77;100664.66;5045128;28;906;-28
2022/09/19 02:53:16;;;;;;;;;;;;;;;26.99;33.16;100675.56;5036454;28;1226;-30
2022/09/19 02:55:47;;;;;;;;;;;;;;;26.99;33.31;100676.38;5036525;28;1961;-32
2022/09/19 02:58:13;;;;;;;;;;;;;;;26.92;33.26;100672.75;5035830;28;1195;-28
2022/09/19 03:00:38;;;;;;;;;;;;;;;27.00;33.27;100661.03;5042061;28;1124;-27
2022/09/19 03:04:11;;;;;;;;;;;;;;;27.05;33.83;100665.91;5045377;28;1171;-27
2022/09/19 03:05:50;;;;;;;;;;;;;;;27.03;33.59;100671.50;5046187;28;1416;-27
2022/09/19 03:08:16;;;;;;;;;;;;;;;26.98;33.55;100681.97;5053589;28;1200;-29
2022/09/19 03:10:42;;;;;;;;;;;;;;;27.05;33.39;100691.06;5056007;28;1140;-30
2022/09/19 03:13:08;;;;;;;;;;;;;;;27.10;32.79;100688.66;5056218;28;1219;-29
2022/09/19 03:15:36;;;;;;;;;;;;;;;27.09;32.82;100691.53;5047474;28;1902;-31
2022/09/19 03:18:02;;;;;;;;;;;;;;;26.98;33.09;100687.38;5036795;28;1179;-28
2022/09/19 03:20:28;;;;;;;;;;;;;;;27.04;33.42;100683.16;5035019;28;1107;-28
2022/09/19 03:22:53;;;;;;;;;;;;;;;27.02;32.85;100686.88;5035647;28;1210;-28
2022/09/19 03:25:19;;;;;;;;;;;;;;;27.08;32.78;100687.13;5038759;28;1365;-29
2022/09/19 03:27:44;;;;;;;;;;;;;;;27.08;33.13;100673.63;5048041;28;1473;-28
2022/09/19 03:30:10;;;;;;;;;;;;;;;27.19;33.02;100670.50;5051901;28;1598;-27
2022/09/19 03:32:36;;;;;;;;;;;;;;;27.22;33.12;100677.38;5045885;28;1358;-29
2022/09/19 03:35:04;;;;;;;;;;;;;;;27.08;33.33;100682.59;5046165;28;1542;-28
2022/09/19 03:37:29;;;;;;;;;;;;;;;26.97;33.42;100675.75;5056027;28;1903;-30
2022/09/19 03:39:54;;;;;;;;;;;;;;;26.97;33.14;100675.75;5056993;28;1529;-30
2022/09/19 03:42:20;;;;;;;;;;;;;;;26.51;28.42;100664.00;5056319;28;1171;-29
2022/09/19 03:44:45;;;;;;;;;;;;;;;26.33;26.95;100663.47;5051778;28;1258;-28
2022/09/19 03:47:11;;;;;;;;;;;;;;;26.17;26.98;100674.16;5048006;28;1267;-34
2022/09/19 03:49:36;;;;;;;;;;;;;;;25.94;26.74;100676.84;5042083;28;1231;-30
2022/09/19 03:52:01;;;;;;;;;;;;;;;25.77;26.59;100676.06;5039539;28;1152;-30
2022/09/19 03:54:27;;;;;;;;;;;;;;;25.64;26.85;100682.84;5041051;28;1200;-30
2022/09/19 03:56:53;;;;;;;;;;;;;;;25.74;27.23;100677.25;5056127;28;1949;-31
2022/09/19 03:59:18;;;;;;;;;;;;;;;25.83;26.57;100682.59;5046637;28;1227;-27
2022/09/19 04:01:44;;;;;;;;;;;;;;;25.58;27.18;100686.22;5050194;28;1191;-27
2022/09/19 04:04:10;;;;;;;;;;;;;;;25.55;26.34;100675.78;5042567;28;1109;-28
2022/09/19 04:06:36;;;;;;;;;;;;;;;25.47;25.72;100682.06;5049556;28;1151;-27
2022/09/19 04:09:01;;;;;;;;;;;;;;;25.66;25.70;100675.44;5038858;28;1125;-28
2022/09/19 04:11:27;;;;;;;;;;;;;;;25.63;25.11;100672.25;5040256;28;1171;-27
2022/09/19 04:13:52;;;;;;;;;;;;;;;25.68;25.22;100673.41;5044695;28;1167;-29
2022/09/19 04:16:18;;;;;;;;;;;;;;;25.84;25.56;100674.34;5053622;28;1953;-29
2022/09/19 04:18:47;;;;;;;;;;;;;;;26.01;25.90;100676.94;5040206;28;1123;-29
2022/09/19 04:21:13;;;;;;;;;;;;;;;26.14;26.11;100679.09;5039674;28;1286;-31
2022/09/19 04:23:38;;;;;;;;;;;;;;;26.22;26.45;100667.41;5039775;28;1124;-29
2022/09/19 04:26:04;;;;;;;;;;;;;;;26.37;26.72;100662.94;5043207;28;1266;-28
2022/09/19 04:28:30;;;;;;;;;;;;;;;26.31;27.71;100666.31;5039098;28;1167;-29
2022/09/19 04:30:55;;;;;;;;;;;;;;;26.35;27.71;100673.06;5039770;28;1219;-30
2022/09/19 04:33:22;;;;;;;;;;;;;;;26.36;27.97;100668.53;5039546;28;1198;-31
2022/09/19 04:35:47;;;;;;;;;;;;;;;26.41;27.87;100676.88;5039493;28;1964;-27
2022/09/19 04:38:14;;;;;;;;;;;;;;;26.41;27.80;100685.81;5041483;28;1184;-30
2022/09/19 04:40:40;;;;;;;;;;;;;;;26.45;27.91;100683.63;5039665;28;1255;-29
2022/09/19 04:43:09;;;;;;;;;;;;;;;26.40;27.88;100689.56;5039242;28;1180;-31
2022/09/19 04:45:34;;;;;;;;;;;;;;;26.43;27.88;100688.34;5047407;28;1187;-28
2022/09/19 04:48:04;;;;;;;;;;;;;;;26.45;28.21;100691.72;5045517;28;1143;-28
2022/09/19 04:50:30;;;;;;;;;;;;;;;26.49;28.15;100694.88;5041061;28;864;-28
2022/09/19 04:52:57;;;;;;;;;;;;;;;26.50;28.02;100702.78;5064572;28;1171;-28
2022/09/19 04:55:24;;;;;;;;;;;;;;;26.47;28.29;100702.31;5042103;28;1249;-30
2022/09/19 04:57:49;;;;;;;;;;;;;;;26.49;28.22;100705.69;5039337;28;1965;-28
2022/09/19 05:00:14;;;;;;;;;;;;;;;26.51;28.25;100704.47;5039323;28;1223;-30
2022/09/19 05:02:40;;;;;;;;;;;;;;;26.59;28.37;100700.03;5039032;28;853;-30
2022/09/19 05:05:06;;;;;;;;;;;;;;;26.53;28.30;100704.28;5038819;28;1202;-28
2022/09/19 05:07:35;;;;;;;;;;;;;;;26.42;28.51;100697.47;5038959;28;1179;-28
2022/09/19 05:10:01;;;;;;;;;;;;;;;26.51;28.69;100700.91;5039123;28;1222;-29
2022/09/19 05:12:28;;;;;;;;;;;;;;;26.48;28.76;100699.44;5038750;28;1210;-27
2022/09/19 05:14:53;;;;;;;;;;;;;;;26.51;28.39;100699.06;5047621;28;1136;-29
2022/09/19 05:17:19;;;;;;;;;;;;;;;26.53;28.51;100696.19;5041509;28;1961;-31
2022/09/19 05:19:44;;;;;;;;;;;;;;;26.56;28.23;100689.59;5056789;28;1230;-29
2022/09/19 05:22:10;;;;;;;;;;;;;;;26.52;28.74;100695.38;5048618;28;1174;-29
2022/09/19 05:24:37;;;;;;;;;;;;;;;26.53;28.59;100693.50;5039061;28;1156;-29
2022/09/19 05:27:02;;;;;;;;;;;;;;;26.54;29.12;100700.59;5048797;28;1168;-31
2022/09/19 05:29:28;;;;;;;;;;;;;;;26.56;28.88;100695.00;5039314;28;1096;-30
2022/09/19 05:31:55;;;;;;;;;;;;;;;26.50;28.75;100705.50;5038186;28;1140;-27
2022/09/19 05:34:20;;;;;;;;;;;;;;;26.58;28.49;100711.81;5038329;28;1163;-29
2022/09/19 05:36:47;;;;;;;;;;;;;;;26.55;28.79;100704.09;5038273;28;1898;-28
2022/09/19 05:39:13;;;;;;;;;;;;;;;26.62;28.69;100696.97;5047600;28;1167;-28
2022/09/19 05:41:38;;;;;;;;;;;;;;;26.57;29.09;100700.22;5037649;28;1100;-27
2022/09/19 05:44:03;;;;;;;;;;;;;;;26.53;28.89;100698.88;5038480;28;1258;-28
2022/09/19 05:46:29;;;;;;;;;;;;;;;26.56;28.82;100697.72;5052399;28;1136;-28
2022/09/19 05:48:54;;;;;;;;;;;;;;;26.55;28.72;100707.66;5037963;28;1214;-28
2022/09/19 05:51:20;;;;;;;;;;;;;;;26.56;28.89;100703.91;5049241;28;1194;-30
2022/09/19 05:53:55;;;;;;;;;;;;;;;26.76;28.91;100703.41;5038802;28;1167;-29
2022/09/19 05:56:20;;;;;;;;;;;;;;;26.93;29.65;100698.72;5038265;28;1906;-31
2022/09/19 05:58:45;;;;;;;;;;;;;;;26.89;29.51;100706.34;5037872;28;1179;-28
2022/09/19 06:01:11;;;;;;;;;;;;;;;26.75;29.82;100713.41;5048791;28;1140;-31
2022/09/19 06:03:38;;;;;;;;;;;;;;;26.66;29.75;100703.66;5051718;28;1226;-31
2022/09/19 06:06:11;;;;;;;;;;;;;;;26.76;29.83;100709.66;5038429;28;1280;-27
2022/09/19 06:08:37;;;;;;;;;;;;;;;26.74;29.98;100706.31;5039641;28;1246;-29
2022/09/19 06:11:02;;;;;;;;;;;;;;;26.76;30.30;100698.88;5050530;28;1163;-27
2022/09/19 06:14:13;;;;;;;;;;;;;;;26.65;30.19;100702.84;5038119;28;1131;-29
2022/09/19 06:16:13;;;;;;;;;;;;;;;26.63;30.19;100695.94;5047987;28;1969;-29
2022/09/19 06:18:38;;;;;;;;;;;;;;;26.68;30.17;100704.34;5037699;28;1148;-27
2022/09/19 06:21:03;;;;;;;;;;;;;;;26.68;30.44;100698.09;5037370;28;1256;-29
2022/09/19 06:23:29;;;;;;;;;;;;;;;26.63;30.40;100696.78;5037784;28;1073;-29
2022/09/19 06:25:54;;;;;;;;;;;;;;;26.69;30.33;100708.72;5037532;28;1164;-28
2022/09/19 06:28:19;;;;;;;;;;;;;;;26.85;31.20;100705.03;5046917;28;977;-28
2022/09/19 06:30:44;;;;;;;;;;;;;;;26.90;31.86;100716.13;5049914;28;1132;-29
2022/09/19 06:33:10;;;;;;;;;;;;;;;26.88;32.46;100710.06;5036861;28;1179;-28
2022/09/19 06:35:35;;;;;;;;;;;;;;;26.99;33.04;100711.47;5037012;28;1914;-28
2022/09/19 06:38:01;;;;;;;;;;;;;;;27.09;33.52;100705.84;5037602;28;1156;-29
2022/09/19 06:40:26;;;;;;;;;;;;;;;26.97;33.51;100710.00;5050617;28;1168;-30
2022/09/19 06:43:01;;;;;;;;;;;;;;;26.95;34.77;100707.50;5037260;28;1156;-29
2022/09/19 06:45:27;;;;;;;;;;;;;;;26.98;34.95;100712.50;5044095;28;1183;-28
2022/09/19 06:48:01;;;;;;;;;;;;;;;26.98;35.25;100717.06;5044491;28;1199;-29
2022/09/19 06:50:26;;;;;;;;;;;;;;;26.98;35.72;100709.81;5037302;28;1064;-28
2022/09/19 06:52:52;;;;;;;;;;;;;;;27.05;35.83;100718.06;5044760;28;1143;-29
2022/09/19 06:55:17;;;;;;;;;;;;;;;27.00;36.06;100720.44;5037284;28;1155;-27
2022/09/19 06:57:42;;;;;;;;;;;;;;;27.02;36.11;100721.13;5037288;28;1898;-29
2022/09/19 07:00:08;;;;;;;;;;;;;;;27.05;36.58;100725.31;5036525;28;1132;-27
2022/09/19 07:02:33;;;;;;;;;;;;;;;27.32;36.30;100718.47;5051810;28;1148;-31
2022/09/19 07:04:59;;;;;;;;;;;;;;;27.34;36.10;100715.56;5042978;28;1104;-30
2022/09/19 07:07:24;;;;;;;;;;;;;;;27.32;35.59;100712.22;5036813;28;1116;-30
2022/09/19 07:09:49;;;;;;;;;;;;;;;27.31;36.59;100722.16;5047774;28;1475;-31
2022/09/19 07:12:14;;;;;;;;;;;;;;;27.29;37.04;100726.94;5053214;28;1115;-28
2022/09/19 07:14:40;;;;;;;;;;;;;;;27.38;36.46;100727.66;5045629;28;1195;-29
2022/09/19 07:17:06;;;;;;;;;;;;;;;27.36;36.92;100725.16;5040960;28;1886;-30
2022/09/19 07:19:31;;;;;;;;;;;;;;;27.37;37.15;100718.75;5040805;28;1143;-29
2022/09/19 07:21:56;;;;;;;;;;;;;;;27.43;36.68;100725.25;5056772;28;1119;-29
2022/09/19 07:24:22;;;;;;;;;;;;;;;27.47;36.97;100723.03;5056052;28;1096;-28
2022/09/19 07:26:47;;;;;;;;;;;;;;;27.51;36.60;100721.63;5056063;28;1120;-28
2022/09/19 07:29:12;;;;;;;;;;;;;;;27.46;36.47;100716.78;5056526;28;1242;-27
2022/09/19 07:31:37;;;;;;;;;;;;;;;27.48;36.50;100713.88;5056968;28;1140;-29
2022/09/19 07:34:03;;;;;;;;;;;;;;;27.48;36.64;100716.59;5055603;28;1131;-28
2022/09/19 07:36:29;;;;;;;;;;;;;;;27.53;36.48;100719.56;5056705;28;1947;-27
2022/09/19 07:38:54;;;;;;;;;;;;;;;27.55;36.33;100720.22;5055442;28;1159;-28
2022/09/19 07:41:19;;;;;;;;;;;;;;;27.56;36.13;100718.38;5056549;28;1162;-27
2022/09/19 07:43:47;;;;;;;;;;;;;;;27.55;36.20;100722.94;5056380;28;1131;-27
2022/09/19 07:46:14;;;;;;;;;;;;;;;27.63;36.22;100716.59;5056312;28;1099;-27
2022/09/19 07:48:41;;;;;;;;;;;;;;;27.77;35.82;100719.50;5036317;28;1163;-28
2022/09/19 07:51:06;;;;;;;;;;;;;;;27.73;36.12;100716.31;5038100;28;1159;-29
2022/09/19 07:53:31;;;;;;;;;;;;;;;27.67;35.89;100717.06;5039201;28;1214;-28
2022/09/19 07:55:57;;;;;;;;;;;;;;;27.80;36.40;100719.97;5036010;28;1898;-28
2022/09/19 07:58:23;;;;;;;;;;;;;;;27.84;35.46;100720.44;5035977;28;1179;-32
2022/09/19 08:00:49;;;;;;;;;;;;;;;27.74;35.80;100713.44;5036568;28;1192;-28
2022/09/19 08:03:15;;;;;;;;;;;;;;;27.92;35.52;100714.06;5037733;28;1234;-27
2022/09/19 08:05:44;;;;;;;;;;;;;;;27.45;32.98;100698.91;5044145;28;2367;-29
2022/09/19 08:08:10;;;;;;;;;;;;;;;27.04;33.18;100694.78;5043384;28;2127;-29
2022/09/19 08:10:36;;;;;;;;;;;;;;;26.81;32.01;100689.41;5052481;28;1801;-29
2022/09/19 08:13:04;;;;;;;;;;;;;;;26.63;31.38;100694.09;5054955;28;2063;-27
2022/09/19 08:15:30;;;;;;;;;;;;;;;26.82;30.18;100696.47;5048451;28;2311;-28
2022/09/19 08:17:57;;;;;;;;;;;;;;;27.19;30.60;100688.56;5055868;28;2175;-29
2022/09/19 08:20:22;;;;;;;;;;;;;;;27.43;30.94;100694.69;5055480;28;1845;-29
2022/09/19 08:22:47;;;;;;;;;;;;;;;27.65;32.48;100695.63;5054466;28;2087;-28
2022/09/19 08:25:14;;;;;;;;;;;;;;;27.66;32.08;100693.78;5044851;28;1859;-28
2022/09/19 08:27:43;;;;;;;;;;;;;;;27.59;29.01;100689.09;5055867;28;1076;-29
2022/09/19 08:30:09;;;;;;;;;;;;;;;27.79;28.86;100683.16;5056267;28;1159;-28
2022/09/19 08:32:34;;;;;;;;;;;;;;;27.83;30.25;100691.72;5054665;28;1151;-27
2022/09/19 08:34:59;;;;;;;;;;;;;;;27.78;30.75;100681.47;5040126;28;1096;-29
2022/09/19 08:37:25;;;;;;;;;;;;;;;27.89;31.43;100676.59;5053391;28;1981;-27
2022/09/19 08:42:37;;;;;;;;;;;;;;;28.02;31.63;100676.75;5041019;28;931;-28
2022/09/19 08:45:22;;;;;;;;;;;;;;;27.96;30.38;100680.25;5054043;28;1207;-27
2022/09/19 08:47:48;;;;;;;;;;;;;;;28.04;29.78;100681.97;5054607;28;1040;-30
2022/09/19 08:50:14;;;;;;;;;;;;;;;28.02;29.53;100687.56;5055005;28;1096;-30
2022/09/19 08:52:41;;;;;;;;;;;;;;;28.16;29.97;100680.44;5057244;28;957;-31
2022/09/19 08:55:07;;;;;;;;;;;;;;;28.17;30.40;100683.97;5057656;28;1140;-29
2022/09/19 08:57:33;;;;;;;;;;;;;;;28.32;29.89;100678.50;5057237;28;1898;-29
2022/09/19 09:00:03;;;;;;;;;;;;;;;28.50;29.57;100669.13;5057534;28;1192;-29
2022/09/19 09:02:41;;;;;;;;;;;;;;;28.48;28.40;100672.88;5058407;28;1092;-29
2022/09/19 09:05:11;;;;;;;;;;;;;;;28.55;27.89;100670.22;5046756;28;904;-28
2022/09/19 09:07:45;;;;;;;;;;;;;;;28.52;27.90;100667.06;5056761;28;1073;-28
2022/09/19 09:10:22;;;;;;;;;;;;;;;28.50;28.04;100663.72;5057055;28;1135;-28
2022/09/19 09:12:50;;;;;;;;;;;;;;;28.70;27.33;100656.63;5058837;28;1089;-28
2022/09/19 09:15:30;;;;;;;;;;;;;;;28.77;26.64;100661.25;5047499;28;1104;-29
2022/09/19 09:17:56;;;;;;;;;;;;;;;28.78;25.85;100652.91;5038940;28;1898;-27
2022/09/19 09:20:56;;;;;;;;;;;;;;;28.73;26.06;100645.41;5037857;28;1096;-29
2022/09/19 09:23:25;;;;;;;;;;;;;;;28.87;25.42;100640.06;5015762;28;1432;-28
2022/09/19 09:25:52;;;;;;;;;;;;;;;28.79;24.90;100646.50;5034003;28;1089;-31
2022/09/19 09:28:26;;;;;;;;;;;;;;;28.82;26.21;100647.94;5036117;28;1113;-31
2022/09/19 09:30:51;;;;;;;;;;;;;;;28.72;28.35;100635.59;5037781;28;1231;-29
2022/09/19 09:33:23;;;;;;;;;;;;;;;28.78;30.11;100638.56;5039455;28;1192;-29
2022/09/19 09:36:08;;;;;;;;;;;;;;;28.31;26.45;100634.38;5051681;28;1914;-31
2022/09/19 09:38:34;;;;;;;;;;;;;;;28.29;26.71;100622.94;5040915;28;1285;-33
2022/09/19 09:43:57;;;;;;;;;;;;;;;28.43;25.52;100623.06;5038178;28;997;-29
2022/09/19 09:46:24;;;;;;;;;;;;;;;28.38;23.35;100622.84;5050912;28;1152;-31
2022/09/19 09:48:52;;;;;;;;;;;;;;;28.64;23.15;100619.53;5056496;28;1151;-29
2022/09/19 09:51:20;;;;;;;;;;;;;;;28.63;22.43;100620.53;5056691;28;1117;-32
2022/09/19 09:53:49;;;;;;;;;;;;;;;28.78;20.10;100608.78;5057435;28;1111;-30
2022/09/19 09:56:26;;;;;;;;;;;;;;;28.85;19.73;100596.97;5057408;28;1906;-28
2022/09/19 09:58:54;;;;;;;;;;;;;;;28.94;18.71;100604.94;5057254;28;1206;-30
2022/09/19 10:04:10;;;;;;;;;;;;;;;29.04;18.01;100599.19;5043865;28;970;-31
2022/09/19 10:06:42;;;;;;;;;;;;;;;29.07;17.53;100602.31;5056463;28;1120;-28
2022/09/19 10:09:37;;;;;;;;;;;;;;;29.05;18.04;100598.97;5055878;28;1176;-29
2022/09/19 10:12:06;;;;;;;;;;;;;;;29.08;16.73;100603.13;5029736;28;1229;-28
2022/09/19 10:14:33;;;;;;;;;;;;;;;29.16;16.47;100604.88;5057257;28;1104;-28
2022/09/19 10:17:00;;;;;;;;;;;;;;;29.17;16.76;100598.41;5049079;28;1909;-30
2022/09/19 10:19:27;;;;;;;;;;;;;;;29.08;16.31;100590.44;5035870;28;1194;-29
2022/09/19 10:21:54;;;;;;;;;;;;;;;29.24;17.46;100584.88;5037281;28;1159;-31
2022/09/19 10:24:40;;;;;;;;;;;;;;;28.95;18.58;100582.22;5050423;28;1139;-30
2022/09/19 10:27:15;;;;;;;;;;;;;;;29.13;16.46;100583.59;5045300;28;1041;-30
2022/09/19 10:29:49;;;;;;;;;;;;;;;29.32;16.46;100584.72;5055651;28;1153;-30
2022/09/19 10:32:23;;;;;;;;;;;;;;;29.27;16.24;100587.19;5056530;28;1131;-30
2022/09/19 10:34:50;;;;;;;;;;;;;;;29.17;17.13;100590.28;5056678;28;1131;-29
2022/09/19 10:37:16;;;;;;;;;;;;;;;29.34;15.57;100577.22;5056329;28;1902;-31
2022/09/19 10:39:43;;;;;;;;;;;;;;;29.28;15.84;100583.47;5057318;28;1158;-31
2022/09/19 10:42:19;;;;;;;;;;;;;;;29.24;16.02;100587.59;5041436;28;934;-32
2022/09/19 10:44:44;;;;;;;;;;;;;;;29.21;17.26;100580.72;5055034;28;1121;-29
2022/09/19 10:47:13;;;;;;;;;;;;;;;29.24;17.99;100583.03;5055137;28;1250;-30
2022/09/19 10:49:44;;;;;;;;;;;;;;;29.18;18.33;100583.81;5056531;28;1175;-28
2022/09/19 10:52:10;;;;;;;;;;;;;;;29.23;18.21;100596.78;5055552;28;1104;-30
2022/09/19 10:54:36;;;;;;;;;;;;;;;29.25;18.39;100578.44;5054955;28;1172;-29
2022/09/19 10:57:04;;;;;;;;;;;;;;;29.11;18.62;100570.28;5056159;28;1953;-29
2022/09/19 10:59:36;;;;;;;;;;;;;;;29.04;19.06;100570.22;5056115;28;1163;-28
2022/09/19 11:02:16;;;;;;;;;;;;;;;29.20;18.81;100579.03;5055217;28;1104;-30
2022/09/19 11:04:46;;;;;;;;;;;;;;;29.06;19.15;100570.84;5056271;28;1156;-30
2022/09/19 11:07:16;;;;;;;;;;;;;;;29.00;19.79;100579.78;5037649;28;1180;-31
2022/09/19 11:09:42;;;;;;;;;;;;;;;28.87;20.02;100571.53;5045778;28;1156;-28
2022/09/19 11:12:15;;;;;;;;;;;;;;;28.90;20.00;100571.16;5054242;28;1155;-32
2022/09/19 11:14:44;;;;;;;;;;;;;;;28.85;20.12;100559.06;5043937;28;1202;-29
2022/09/19 11:17:29;;;;;;;;;;;;;;;28.89;19.89;100564.91;5047001;28;1961;-34
2022/09/19 11:20:14;;;;;;;;;;;;;;;28.90;19.82;100560.31;5047779;28;1161;-31
2022/09/19 11:22:50;;;;;;;;;;;;;;;28.83;19.99;100550.28;5047198;28;1112;-31
2022/09/19 11:25:30;;;;;;;;;;;;;;;28.72;19.92;100548.16;5049024;28;1150;-28
2022/09/19 11:28:02;;;;;;;;;;;;;;;28.72;20.52;100556.28;5036290;28;1195;-30
2022/09/19 11:30:28;;;;;;;;;;;;;;;28.73;20.48;100544.41;5042498;28;895;-30
2022/09/19 11:33:16;;;;;;;;;;;;;;;28.81;20.21;100540.72;5034654;28;1141;-28
2022/09/19 11:35:44;;;;;;;;;;;;;;;28.71;20.50;100550.00;5035944;28;1918;-29
2022/09/19 11:38:45;;;;;;;;;;;;;;;28.72;20.62;100546.28;5034279;28;1136;-30
2022/09/19 11:41:10;;;;;;;;;;;;;;;28.73;20.55;100542.53;5033080;28;1215;-28
2022/09/19 11:43:59;;;;;;;;;;;;;;;28.90;20.32;100531.38;5050754;28;1120;-29
2022/09/19 11:46:27;;;;;;;;;;;;;;;28.80;20.82;100531.75;5055872;28;1194;-34
2022/09/19 11:49:22;;;;;;;;;;;;;;;28.88;20.73;100525.31;5056153;28;1159;-30
2022/09/19 11:51:53;;;;;;;;;;;;;;;28.94;20.97;100521.84;4999588;28;1110;-33
2022/09/19 11:54:38;;;;;;;;;;;;;;;28.89;20.88;100518.88;5049219;28;1223;-31
2022/09/19 11:57:09;;;;;;;;;;;;;;;28.92;21.37;100520.34;5036353;28;1898;-33
2022/09/19 11:59:39;;;;;;;;;;;;;;;28.84;21.49;100521.34;5050102;28;1089;-29
2022/09/19 12:02:09;;;;;;;;;;;;;;;28.89;21.65;100523.47;5056133;28;1123;-32
2022/09/19 12:04:48;;;;;;;;;;;;;;;28.92;21.51;100520.34;5056071;28;1279;-29
2022/09/19 12:07:14;;;;;;;;;;;;;;;28.90;21.59;100519.69;5055608;28;849;-30
2022/09/19 12:09:47;;;;;;;;;;;;;;;28.85;21.58;100512.19;5056009;28;1238;-29
2022/09/19 12:12:14;;;;;;;;;;;;;;;28.82;21.95;100524.25;5054879;28;1144;-33
2022/09/19 12:14:42;;;;;;;;;;;;;;;28.81;21.88;100529.88;5054799;28;1148;-28
2022/09/19 12:17:26;;;;;;;;;;;;;;;28.87;21.80;100520.94;5037506;28;1898;-29
2022/09/19 12:20:00;;;;;;;;;;;;;;;28.90;22.08;100525.13;5040760;28;1586;-30
2022/09/19 12:22:26;;;;;;;;;;;;;;;28.82;22.10;100521.56;5035748;28;1128;-29
2022/09/19 12:25:05;;;;;;;;;;;;;;;28.89;22.26;100515.34;5037114;28;1208;-30
2022/09/19 12:27:37;;;;;;;;;;;;;;;28.89;22.16;100518.03;5039971;28;1281;-30
2022/09/19 12:30:05;;;;;;;;;;;;;;;28.81;22.55;100510.94;5045344;28;937;-29
2022/09/19 12:32:40;;;;;;;;;;;;;;;28.79;22.55;100504.88;5039371;28;1250;-32
2022/09/19 12:35:15;;;;;;;;;;;;;;;28.85;22.42;100512.19;5046014;28;1132;-30
2022/09/19 12:37:48;;;;;;;;;;;;;;;28.77;22.38;100504.22;5039641;28;1902;-30
2022/09/19 12:40:13;;;;;;;;;;;;;;;28.78;22.55;100508.63;5051886;28;1139;-31
2022/09/19 12:42:45;;;;;;;;;;;;;;;28.75;22.38;100509.84;5045117;28;1345;-28
2022/09/19 12:45:11;;;;;;;;;;;;;;;28.83;22.73;100504.28;5058847;28;1089;-29
2022/09/19 12:47:39;;;;;;;;;;;;;;;28.70;22.53;100504.19;5059600;28;1166;-28
2022/09/19 12:50:05;;;;;;;;;;;;;;;28.79;22.83;100496.75;5043977;28;1136;-29
2022/09/19 12:52:34;;;;;;;;;;;;;;;28.75;22.84;100493.59;5057505;28;1207;-30
2022/09/19 12:55:15;;;;;;;;;;;;;;;28.87;22.76;100487.63;5059216;28;917;-29
2022/09/19 12:57:47;;;;;;;;;;;;;;;28.19;23.21;100498.03;5058117;28;1905;-29
2022/09/19 13:00:13;;;;;;;;;;;;;;;27.26;22.41;100505.84;5059653;28;1124;-32
2022/09/19 13:02:43;;;;;;;;;;;;;;;27.08;23.00;100500.84;5059754;28;1175;-29
2022/09/19 13:05:22;;;;;;;;;;;;;;;27.17;23.41;100494.34;5058992;28;1214;-31